Latest Weather Observations for Christmas Island

IDW60801

Issued at 10:35 pm WST Thursday 2 October 2014 (issued every 30 minutes, with the page automatically refreshed every 10 minutes)

About weather observations | Map of weather stations | Latest weather observations for WA | Other Formats
Station Details ID: 200790 Name: CHRISTMAS ISLAND AERO Lat: -10.45 Lon: 105.69 Height: 261.0 m
Data from the previous 72 hours. | See also: Recent months at Christmas Island
Date/Time
WST
Temp
°C
App
Temp
°C
Dew
Point
Rel
Hum
%
Delta-T
°C
Wind Press
QNH
hPa
Press
MSL
hPa
Rain
since 9 am
mm
Dir
 
Spd
km/h
Gust
km/h
Spd
kts
Gust
kts
02/10:28pm 23.5 23.5 20.1 81 2.2 SE 20 30 11 16 1015.1 - 0.0
02/10:00pm 23.5 23.5 20.1 81 2.2 SE 20 30 11 16 1015.2 1013.7 0.0
02/09:56pm 23.5 23.4 20.0 81 2.3 SE 20 28 11 15 1015.2 - 0.0
02/09:28pm 23.6 23.2 20.2 81 2.2 SE 22 30 12 16 1015.0 - 0.0
02/09:00pm 23.5 23.6 20.3 82 2.1 SE 20 30 11 16 1014.9 - 0.0
02/08:49pm 23.5 23.5 20.1 81 2.2 SE 20 32 11 17 1014.9 - 0.0
02/08:33pm 23.6 23.3 20.4 82 2.1 SE 22 30 12 16 1014.8 - 0.0
02/08:28pm 23.6 23.4 20.6 83 2.0 SE 22 30 12 16 1014.7 - 0.0
02/08:00pm 23.6 23.5 20.7 84 1.9 SE 22 28 12 15 1014.6 - 0.0
02/07:40pm 23.7 24.0 20.7 83 2.0 SE 20 26 11 14 1014.3 - 0.0
02/07:38pm 23.7 24.0 20.7 83 2.0 SE 20 26 11 14 1014.3 - 0.0
02/07:00pm 23.9 23.7 20.6 82 2.2 SE 22 30 12 16 1014.0 1012.5 0.0
02/06:00pm 24.4 24.5 20.4 78 2.6 SE 20 28 11 15 1013.6 - 0.0
02/05:00pm 24.7 24.4 20.4 77 2.8 ESE 22 33 12 18 1013.3 - 0.0
02/04:00pm 25.3 24.6 20.3 74 3.3 ESE 24 33 13 18 1013.4 1011.9 0.0
02/03:42pm 25.2 24.4 20.0 73 3.4 ESE 24 32 13 17 1013.5 - 0.0
02/03:35pm 25.8 25.1 20.2 71 3.7 ESE 24 33 13 18 1013.5 - 0.0
02/03:00pm 25.7 25.1 20.4 72 3.5 ESE 24 32 13 17 1013.8 - 0.0
02/02:47pm 25.9 25.1 20.1 70 3.8 ESE 24 35 13 19 1013.9 - 0.0
02/02:38pm 26.5 25.6 19.8 66 4.4 ESE 24 32 13 17 1014.0 - 0.0
02/02:00pm 25.4 25.0 20.2 73 3.4 ESE 22 33 12 18 1014.7 - 0.0
02/01:48pm 25.1 24.3 20.1 74 3.3 ESE 24 33 13 18 1014.8 - 0.0
02/01:05pm 25.3 24.5 20.0 72 3.5 ESE 24 35 13 19 1015.4 - 0.0
02/01:00pm 25.3 24.5 20.0 72 3.5 ESE 24 35 13 19 1015.4 1013.9 0.0
02/12:23pm 25.2 24.4 20.0 73 3.4 ESE 24 35 13 19 1015.8 - 0.0
02/12:00pm 25.7 24.7 19.7 69 3.9 ESE 24 33 13 18 1016.2 - 0.0
02/11:00am 25.1 24.1 19.6 71 3.6 ESE 24 32 13 17 1016.6 - 0.0
02/10:00am 25.7 24.1 19.2 67 4.2 ESE 26 33 14 18 1016.6 1015.1 0.0
02/09:00am 25.3 24.6 19.4 70 3.8 ESE 22 32 12 17 1016.5 - 0.0
02/08:30am 24.7 24.4 19.6 73 3.3 ESE 20 30 11 16 1016.2 - 0.0
02/08:06am 24.7 24.6 19.6 73 3.3 ESE 19 28 10 15 1015.9 - 0.0
02/08:00am 24.5 24.7 20.1 76 2.9 ESE 19 30 10 16 1015.8 - 0.0
02/07:18am 23.4 23.2 19.7 80 2.4 ESE 20 32 11 17 1015.4 - 0.0
02/07:08am 23.4 23.1 19.5 79 2.5 ESE 20 30 11 16 1015.3 - 0.0
02/07:00am 23.3 23.2 19.9 81 2.2 ESE 20 26 11 14 1015.3 1013.8 0.0
02/06:48am 23.3 23.7 19.9 81 2.2 ESE 17 26 9 14 1015.3 - 0.0
02/06:00am 23.2 22.6 19.8 81 2.2 ESE 22 32 12 17 1014.8 - 0.0
02/05:22am 23.2 23.4 20.1 83 2.0 ESE 19 28 10 15 1014.5 - 0.0
02/05:00am 23.2 23.7 20.1 83 2.0 ESE 17 22 9 12 1014.2 - 0.0
02/04:48am 23.1 23.7 19.5 80 2.3 ESE 15 20 8 11 1014.2 - 0.0
02/04:30am 23.3 23.7 20.7 85 1.7 ESE 19 28 10 15 1014.1 - 0.0
02/04:08am 23.0 23.0 20.1 84 1.9 ESE 20 26 11 14 1014.0 - 0.0
02/04:00am 23.1 23.2 20.3 84 1.8 ESE 20 30 11 16 1014.0 1012.5 0.0
02/03:28am 23.1 24.0 20.8 87 1.5 SE 17 24 9 13 1013.8 - 0.0
02/03:00am 23.0 23.1 20.4 85 1.7 SE 20 26 11 14 1013.9 - 0.0
02/02:00am 23.2 23.7 20.9 87 1.5 ESE 19 24 10 13 1014.3 - 0.0
02/01:18am 23.2 24.1 20.8 86 1.6 ESE 17 20 9 11 1014.5 - 0.0
02/01:00am 23.3 24.2 20.9 86 1.6 SE 17 24 9 13 1014.7 1013.2 0.0
02/12:55am 23.4 24.3 20.8 85 1.7 SE 17 24 9 13 1014.8 - 0.0
02/12:00am 23.4 24.8 21.0 86 1.6 SE 15 20 8 11 1015.1 - 0.0
 
Date/Time
WST
Temp
°C
App
Temp
°C
Dew
Point
Rel
Hum
%
Delta-T
°C
Wind Press
QNH
hPa
Press
MSL
hPa
Rain
since 9 am
mm
Dir
 
Spd
km/h
Gust
km/h
Spd
kts
Gust
kts
01/11:54pm 23.5 24.9 21.1 86 1.6 SE 15 20 8 11 1015.2 - 0.0
01/11:35pm 23.5 24.8 20.9 85 1.7 SE 15 20 8 11 1015.4 - 0.0
01/11:32pm 23.5 24.9 21.1 86 1.6 SE 15 20 8 11 1015.4 - 0.0
01/11:00pm 23.6 24.6 21.0 85 1.7 SE 17 24 9 13 1015.5 - 0.0
01/10:00pm 23.8 24.9 21.2 85 1.7 ESE 17 24 9 13 1015.4 1013.9 0.0
01/09:50pm 23.7 25.1 21.1 85 1.7 ESE 15 22 8 12 1015.4 - 0.0
01/09:40pm 23.7 24.7 21.0 85 1.8 ESE 17 22 9 12 1015.5 - 0.0
01/09:00pm 23.8 24.9 21.2 85 1.7 SE 17 24 9 13 1015.3 - 0.0
01/08:00pm 24.0 25.0 21.1 84 1.9 ESE 17 24 9 13 1014.9 - 0.0
01/07:00pm 24.1 24.8 21.2 84 1.9 ESE 19 24 10 13 1014.2 1012.7 0.0
01/06:00pm 24.6 26.0 21.0 80 2.4 ESE 15 22 8 12 1013.5 - 0.0
01/05:00pm 24.6 25.2 21.0 80 2.4 ESE 19 26 10 14 1013.1 - 0.0
01/04:00pm 25.3 26.1 21.3 78 2.7 ESE 19 28 10 15 1013.0 1011.5 0.0
01/03:00pm 25.6 26.4 21.4 77 2.8 E 19 26 10 14 1013.4 - 0.0
01/02:00pm 26.0 26.2 21.4 76 3.1 E 22 32 12 17 1013.9 - 0.0
01/01:00pm 26.1 27.0 21.5 76 3.1 ESE 19 28 10 15 1014.8 1013.3 0.0
01/12:00pm 26.4 27.1 21.5 74 3.3 ESE 20 30 11 16 1015.5 - 0.0
01/11:00am 25.4 26.3 22.0 81 2.3 E 20 26 11 14 1016.3 - 0.0
01/10:00am 25.1 26.5 21.8 82 2.2 E 17 22 9 12 1016.7 1015.2 0.0
01/09:00am 25.1 25.8 21.5 80 2.4 E 20 28 11 15 1016.4 - 0.0
01/08:00am 24.0 24.8 21.4 85 1.7 ESE 19 26 10 14 1015.7 - 0.0
01/07:00am 23.6 25.1 21.3 87 1.5 E 15 20 8 11 1015.0 1013.5 0.0
01/06:00am 23.4 25.0 21.4 88 1.3 ESE 15 22 8 12 1014.3 - 0.0
01/05:00am 23.4 25.3 21.4 88 1.3 E 13 19 7 10 1013.7 - 0.0
01/04:53am 23.4 25.3 21.4 88 1.3 ESE 13 19 7 10 1013.7 - 0.0
01/04:44am 23.3 25.1 21.2 88 1.4 E 13 19 7 10 1013.6 - 0.0
01/04:00am 23.4 24.6 21.4 88 1.3 ESE 17 22 9 12 1013.6 1012.1 0.0
01/03:00am 23.4 24.6 21.4 88 1.3 ESE 17 24 9 13 1013.5 - 0.0
01/02:00am 23.5 24.4 21.5 88 1.3 ESE 19 24 10 13 1013.6 - 0.0
01/01:00am 23.6 24.9 21.7 89 1.3 ESE 17 24 9 13 1014.1 1012.7 0.0
01/12:00am 23.8 25.2 21.9 89 1.3 E 17 26 9 14 1014.6 - 0.0
 
Date/Time
WST
Temp
°C
App
Temp
°C
Dew
Point
Rel
Hum
%
Delta-T
°C
Wind Press
QNH
hPa
Press
MSL
hPa
Rain
since 9 am
mm
Dir
 
Spd
km/h
Gust
km/h
Spd
kts
Gust
kts
30/11:00pm 23.8 25.2 21.9 89 1.3 ESE 17 24 9 13 1014.8 - 0.0
30/10:00pm 23.9 25.8 22.0 89 1.3 ESE 15 22 8 12 1015.0 1013.6 0.0
30/09:00pm 23.9 25.1 21.5 86 1.6 ESE 17 22 9 12 1014.7 - 0.0
30/08:00pm 24.0 25.8 21.9 88 1.4 ESE 15 22 8 12 1014.3 - 0.0
30/07:00pm 24.1 25.8 21.7 86 1.6 ESE 15 24 8 13 1013.7 1012.3 0.0
30/06:00pm 24.7 25.9 21.4 82 2.2 E 17 20 9 11 1013.3 - 0.0
30/05:00pm 24.9 26.7 21.8 83 2.1 E 15 22 8 12 1012.9 - 0.0
30/04:00pm 25.2 26.6 21.8 81 2.3 E 17 24 9 13 1012.6 1011.1 0.0
30/03:00pm 25.5 26.4 21.6 79 2.6 E 19 26 10 14 1012.8 - 0.0
30/02:00pm 26.0 27.2 21.4 76 3.1 E 17 24 9 13 1013.4 - 0.0
30/01:03pm 25.9 26.7 21.4 76 3.0 E 19 24 10 13 1014.4 - 0.0
30/01:00pm 26.1 26.9 21.3 75 3.2 E 19 24 10 13 1014.5 1013.1 0.0
30/12:55pm 26.1 27.0 21.5 76 3.1 E 19 26 10 14 1014.5 - 0.0
30/12:00pm 25.9 26.7 21.3 76 3.1 E 19 24 10 13 1015.4 - 0.0
30/11:00am 25.6 26.6 21.7 79 2.6 E 19 26 10 14 1016.2 - 0.0
30/10:00am 24.9 26.1 21.5 81 2.3 E 17 28 9 15 1016.4 1015.0 0.0
30/09:00am 24.6 26.0 21.8 84 1.9 ESE 17 24 9 13 1016.2 - 0.0
30/08:00am 24.0 25.3 21.6 86 1.6 ESE 17 22 9 12 1015.4 - 0.0
30/07:00am 23.3 24.8 21.3 88 1.3 ESE 15 22 8 12 1014.9 1013.5 0.0
30/06:00am 23.1 25.4 21.4 90 1.1 ESE 11 15 6 8 1014.4 - 0.0
30/05:00am 23.2 24.4 21.4 90 1.2 ESE 17 22 9 12 1013.9 - 0.0
30/04:00am 23.2 24.8 21.4 90 1.2 ESE 15 20 8 11 1014.0 1012.6 0.0
30/03:00am 23.1 25.0 21.3 90 1.2 SE 13 17 7 9 1013.8 - 0.0
30/02:00am 23.4 25.1 21.6 90 1.2 SE 15 22 8 12 1014.0 - 0.0
30/01:00am 23.3 24.1 21.3 88 1.3 ESE 19 24 10 13 1014.3 1012.9 0.0
30/12:00am 23.2 24.7 21.2 88 1.3 SE 15 22 8 12 1014.8 - 0.0

Other Formats:

Comma delimited format used in spreadsheet applications
http://www.bom.gov.au/fwo/IDW60801/IDW60801.96995.axf

JavaScript Object Notation format (JSON) in row-major order
http://www.bom.gov.au/fwo/IDW60801/IDW60801.96995.json